Hydro-Met Data Report Part 5
Issued by NWS West Gulf RFC

Home |  Current Version |  Previous Version |  Text Only |  Print | Product List |  Glossary On
Versions: 1 2 3 4 5 6 7 8 9 10 11 12 13 14 15 16 17 18 19 20 21 22 23 24 25 26
272
SRUS54 KFWR 031746
RR5FWR
:     Hourly Reservoir Discharges
:     Data - USACE
.ER SCLT2 20260903 Z DH1100 /DUE /QTIRZZZ /DIH+01 /0.0053 /0.0053 /0.0053 /0.0053 /0.0053 /0.0053
.ER TXKT2 20260903 Z DH1100 /DUE /QTIRZZZ /DIH+01 /0.097 /0.097 /0.097 /0.097 /0.097 /0.097
.ER JFNT2 20260903 Z DH1100 /DUE /QTIRZZZ /DIH+01 /0.02 /0.02 /0.02 /0.02 /0.02 /0.02
.ER JSPT2 20260903 Z DH1100 /DUE /QTIRZZZ /DIH+01 /0.0 /0.0 /0.0 /0.0 /0.0 /0.0
.ER TBLT2 20260903 Z DH1100 /DUE /QTIRZZZ /DIH+01 /7.1 /7.1 /7.1 /7.1 /7.1 /7.1
.ER BNBT2 20260903 Z DH1100 /DUE /QTIRZZZ /DIH+01 /0.0383 /0.0383 /0.0383 /0.0383 /0.0383 /0.0383
.ER JPLT2 20260903 Z DH1100 /DUE /QTIRZZZ /DIH+01 /0.016 /0.016 /0.016 /0.016 /0.016 /0.016 /0.016
.ER RRLT2 20260903 Z DH1100 /DUE /QTIRZZZ /DIH+01 /0.0253 /0.0253 /0.0253 /0.0253 /0.0253 /0.0253
.ER LEWT2 20260903 Z DH1100 /DUE /QTIRZZZ /DIH+01 /0.2933 /0.2933 /0.2933 /0.2933 /0.2933 /0.2933
.ER GPVT2 20260903 Z DH1100 /DUE /QTIRZZZ /DIH+01 /0.0624 /0.0624 /0.0624 /0.0624 /0.0624 /0.0623
.ER LVNT2 20260903 Z DH1100 /DUE /QTIRZZZ /DIH+01 /0.001 /0.001 /0.001 /0.001 /0.001 /0.001 /0.001
.ER DAWT2 20260903 Z DH1100 /DUE /QTIRZZZ /DIH+01 /0.0 /0.0 /0.0 /0.0 /0.0 /0.0
.ER BDWT2 20260903 Z DH1100 /DUE /QTIRZZZ /DIH+01 /0.0 /0.0 /0.0 /0.0 /0.0 /0.0
.ER WTYT2 20260903 Z DH1100 /DUE /QTIRZZZ /DIH+01 /0.05 /0.05 /0.05 /0.05 /0.05 /0.05
.ER ALAT2 20260903 Z DH1100 /DUE /QTIRZZZ /DIH+01 /0.0052 /0.0052 /0.0052 /0.0052 /0.0052 /0.0052
.ER ACTT2 20260903 Z DH1100 /DUE /QTIRZZZ /DIH+01 /0.01 /0.01 /0.01 /0.01 /0.01 /0.01
.ER PCTT2 20260903 Z DH1100 /DUE /QTIRZZZ /DIH+01 /0.0277 /0.0277 /0.0277 /0.0276 /0.0276 /0.0276
.ER BLNT2 20260903 Z DH1100 /DUE /QTIRZZZ /DIH+01 /0.0515 /0.0515 /0.0515 /0.0515 /0.0515 /0.0515
.ER STIT2 20260903 Z DH1100 /DUE /QTIRZZZ /DIH+01 /0.001 /0.001 /0.001 /0.001 /0.001 /0.001 /0.001
.ER GGLT2 20260903 Z DH1100 /DUE /QTIRZZZ /DIH+01 /0.0 /0.0 /0.0 /0.0 /0.0 /0.0 /0.0
.ER GNGT2 20260903 Z DH1100 /DUE /QTIRZZZ /DIH+01 /0.0044 /0.0044 /0.0044 /0.0044 /0.0044 /0.0044 /0.0044
.ER SOMT2 20260903 Z DH1100 /DUE /QTIRZZZ /DIH+01 /0.3499 /0.3499 /0.3499 /0.3498 /0.3498 /0.3498 /0.3498
.ER SAGT2 20260903 Z DH1100 /DUE /QTIRZZZ /DIH+01 /0.001 /0.001 /0.001 /0.001 /0.001 /0.001 /0.001
.ER HORT2 20260903 Z DH1100 /DUE /QTIRZZZ /DIH+01 /0.0 /0.0 /0.0 /0.0 /0.0 /0.0
.ER SMCT2 20260903 Z DH1100 /DUE /QTIRZZZ /DIH+01 /0.153 /0.153 /0.153 /0.153 /0.153 /0.153
.ER ADDT2 20260903 Z DH1100 /DUE /QTIRZZZ /DIH+01 /0.0809 /0.0738 /0.0741 /0.0752 /0.0752 /0.0766
.ER BAKT2 20260903 Z DH1100 /DUE /QTIRZZZ /DIH+01 /0.0356 /0.0356 /0.0352 /0.0352 /0.0356 /0.0356
.ER TBRT2 20260903 Z DH1100 /DUE /QTIRZZZ /DIH+01 /0.05 /0.05 /0.05 /0.05 /0.05 /0.05 /0.05
.ER BSLT2 20260903 Z DH1100 /DUE /QTIRZZZ /DIH+01 /0.005 /0.005 /0.005 /0.005 /0.005 /0.005 /0.005
.ER CLDL1 20260903 Z DH1100 /DUE /QTIRZZZ /DIH+01 /0.0 /0.0 /0.0 /0.0 /0.0 /0.0
$$